sensor_id;sensor_type;location;lat;lon;timestamp;P1;durP1;ratioP1;P2;durP2;ratioP2
19151;SDS011;9708;53.114;9.388;2024-03-06T00:00:00;4.37;;;2.47;;
19151;SDS011;9708;53.114;9.388;2024-03-06T00:02:28;2.00;;;1.90;;
19151;SDS011;9708;53.114;9.388;2024-03-06T00:04:55;2.50;;;2.30;;
19151;SDS011;9708;53.114;9.388;2024-03-06T00:07:23;1.17;;;1.17;;
19151;SDS011;9708;53.114;9.388;2024-03-06T00:09:51;0.97;;;0.97;;
19151;SDS011;9708;53.114;9.388;2024-03-06T00:12:18;2.33;;;2.13;;
19151;SDS011;9708;53.114;9.388;2024-03-06T00:14:45;4.53;;;2.40;;
19151;SDS011;9708;53.114;9.388;2024-03-06T00:17:12;4.10;;;1.93;;
19151;SDS011;9708;53.114;9.388;2024-03-06T00:19:38;3.03;;;2.73;;
19151;SDS011;9708;53.114;9.388;2024-03-06T00:22:05;3.40;;;2.63;;
19151;SDS011;9708;53.114;9.388;2024-03-06T00:24:34;2.53;;;2.23;;
19151;SDS011;9708;53.114;9.388;2024-03-06T00:27:01;2.73;;;2.53;;
19151;SDS011;9708;53.114;9.388;2024-03-06T00:29:29;5.83;;;2.27;;
19151;SDS011;9708;53.114;9.388;2024-03-06T00:31:57;2.20;;;1.83;;
19151;SDS011;9708;53.114;9.388;2024-03-06T00:34:24;1.70;;;1.63;;
19151;SDS011;9708;53.114;9.388;2024-03-06T00:36:52;13.40;;;3.27;;
19151;SDS011;9708;53.114;9.388;2024-03-06T00:39:19;2.10;;;1.93;;
19151;SDS011;9708;53.114;9.388;2024-03-06T00:41:47;14.33;;;3.27;;
19151;SDS011;9708;53.114;9.388;2024-03-06T00:44:14;2.23;;;1.43;;
19151;SDS011;9708;53.114;9.388;2024-03-06T00:46:42;4.00;;;1.97;;
19151;SDS011;9708;53.114;9.388;2024-03-06T00:49:09;2.80;;;2.23;;
19151;SDS011;9708;53.114;9.388;2024-03-06T00:51:36;2.57;;;2.43;;
19151;SDS011;9708;53.114;9.388;2024-03-06T00:54:03;2.73;;;2.27;;
19151;SDS011;9708;53.114;9.388;2024-03-06T00:56:30;4.83;;;3.00;;
19151;SDS011;9708;53.114;9.388;2024-03-06T00:58:58;4.30;;;1.83;;
19151;SDS011;9708;53.114;9.388;2024-03-06T01:01:25;1.97;;;1.80;;
19151;SDS011;9708;53.114;9.388;2024-03-06T01:03:52;3.30;;;2.20;;
19151;SDS011;9708;53.114;9.388;2024-03-06T01:06:20;3.00;;;1.93;;
19151;SDS011;9708;53.114;9.388;2024-03-06T01:08:47;2.33;;;2.13;;
19151;SDS011;9708;53.114;9.388;2024-03-06T01:11:14;2.40;;;2.03;;
19151;SDS011;9708;53.114;9.388;2024-03-06T01:13:41;2.00;;;1.90;;
19151;SDS011;9708;53.114;9.388;2024-03-06T01:16:09;2.70;;;2.07;;
19151;SDS011;9708;53.114;9.388;2024-03-06T01:18:36;1.70;;;1.60;;
19151;SDS011;9708;53.114;9.388;2024-03-06T01:21:03;3.13;;;2.20;;
19151;SDS011;9708;53.114;9.388;2024-03-06T01:23:30;1.70;;;1.67;;
19151;SDS011;9708;53.114;9.388;2024-03-06T01:25:57;2.77;;;1.63;;
19151;SDS011;9708;53.114;9.388;2024-03-06T01:28:23;3.47;;;2.13;;
19151;SDS011;9708;53.114;9.388;2024-03-06T01:30:51;4.43;;;2.27;;
19151;SDS011;9708;53.114;9.388;2024-03-06T01:33:19;2.13;;;1.97;;
19151;SDS011;9708;53.114;9.388;2024-03-06T01:35:46;1.97;;;1.83;;
19151;SDS011;9708;53.114;9.388;2024-03-06T01:38:13;3.50;;;3.23;;
19151;SDS011;9708;53.114;9.388;2024-03-06T01:40:42;3.03;;;1.93;;
19151;SDS011;9708;53.114;9.388;2024-03-06T01:43:17;3.60;;;2.20;;
19151;SDS011;9708;53.114;9.388;2024-03-06T01:45:45;2.43;;;2.20;;
19151;SDS011;9708;53.114;9.388;2024-03-06T01:48:13;1.80;;;1.70;;
19151;SDS011;9708;53.114;9.388;2024-03-06T01:50:41;2.53;;;1.93;;
19151;SDS011;9708;53.114;9.388;2024-03-06T01:53:08;2.10;;;1.10;;
19151;SDS011;9708;53.114;9.388;2024-03-06T01:55:36;2.60;;;2.27;;
19151;SDS011;9708;53.114;9.388;2024-03-06T01:58:03;1.50;;;1.40;;
19151;SDS011;9708;53.114;9.388;2024-03-06T02:00:31;1.50;;;1.50;;
19151;SDS011;9708;53.114;9.388;2024-03-06T02:02:58;1.87;;;1.77;;
19151;SDS011;9708;53.114;9.388;2024-03-06T02:05:27;1.93;;;1.77;;
19151;SDS011;9708;53.114;9.388;2024-03-06T02:07:57;3.20;;;2.07;;
19151;SDS011;9708;53.114;9.388;2024-03-06T02:10:25;4.03;;;3.23;;
19151;SDS011;9708;53.114;9.388;2024-03-06T02:12:52;2.37;;;2.10;;
19151;SDS011;9708;53.114;9.388;2024-03-06T02:15:19;4.37;;;2.07;;
19151;SDS011;9708;53.114;9.388;2024-03-06T02:17:46;1.70;;;1.60;;
19151;SDS011;9708;53.114;9.388;2024-03-06T02:20:13;2.77;;;2.57;;
19151;SDS011;9708;53.114;9.388;2024-03-06T02:22:42;2.83;;;1.90;;
19151;SDS011;9708;53.114;9.388;2024-03-06T02:25:09;1.33;;;1.20;;
19151;SDS011;9708;53.114;9.388;2024-03-06T02:27:37;1.67;;;1.57;;
19151;SDS011;9708;53.114;9.388;2024-03-06T02:30:04;1.97;;;1.87;;
19151;SDS011;9708;53.114;9.388;2024-03-06T02:32:32;2.00;;;1.90;;
19151;SDS011;9708;53.114;9.388;2024-03-06T02:35:00;2.10;;;1.97;;
19151;SDS011;9708;53.114;9.388;2024-03-06T02:37:28;0.90;;;0.90;;
19151;SDS011;9708;53.114;9.388;2024-03-06T02:39:56;2.63;;;2.17;;
19151;SDS011;9708;53.114;9.388;2024-03-06T02:42:24;2.73;;;2.50;;
19151;SDS011;9708;53.114;9.388;2024-03-06T02:44:51;3.40;;;3.13;;
19151;SDS011;9708;53.114;9.388;2024-03-06T02:47:18;1.87;;;1.77;;
19151;SDS011;9708;53.114;9.388;2024-03-06T02:49:45;1.70;;;1.60;;
19151;SDS011;9708;53.114;9.388;2024-03-06T02:52:12;1.43;;;1.33;;
19151;SDS011;9708;53.114;9.388;2024-03-06T02:54:40;2.03;;;1.93;;
19151;SDS011;9708;53.114;9.388;2024-03-06T02:57:08;1.93;;;1.83;;
19151;SDS011;9708;53.114;9.388;2024-03-06T02:59:35;1.10;;;1.10;;
19151;SDS011;9708;53.114;9.388;2024-03-06T03:02:02;0.97;;;0.87;;
19151;SDS011;9708;53.114;9.388;2024-03-06T03:04:29;5.03;;;3.77;;
19151;SDS011;9708;53.114;9.388;2024-03-06T03:06:56;6.90;;;2.20;;
19151;SDS011;9708;53.114;9.388;2024-03-06T03:09:23;2.33;;;2.23;;
19151;SDS011;9708;53.114;9.388;2024-03-06T03:11:50;1.90;;;1.67;;
19151;SDS011;9708;53.114;9.388;2024-03-06T03:14:18;2.60;;;2.40;;
19151;SDS011;9708;53.114;9.388;2024-03-06T03:16:45;2.63;;;1.77;;
19151;SDS011;9708;53.114;9.388;2024-03-06T03:19:12;2.53;;;1.73;;
19151;SDS011;9708;53.114;9.388;2024-03-06T03:21:41;1.17;;;1.17;;
19151;SDS011;9708;53.114;9.388;2024-03-06T03:24:09;2.17;;;2.03;;
19151;SDS011;9708;53.114;9.388;2024-03-06T03:26:36;1.33;;;1.33;;
19151;SDS011;9708;53.114;9.388;2024-03-06T03:29:03;2.70;;;1.40;;
19151;SDS011;9708;53.114;9.388;2024-03-06T03:31:31;4.40;;;2.77;;
19151;SDS011;9708;53.114;9.388;2024-03-06T03:33:58;2.63;;;1.77;;
19151;SDS011;9708;53.114;9.388;2024-03-06T03:36:25;1.83;;;1.73;;
19151;SDS011;9708;53.114;9.388;2024-03-06T03:38:52;2.27;;;2.07;;
19151;SDS011;9708;53.114;9.388;2024-03-06T03:41:19;3.07;;;2.67;;
19151;SDS011;9708;53.114;9.388;2024-03-06T03:43:46;3.40;;;1.63;;
19151;SDS011;9708;53.114;9.388;2024-03-06T03:46:12;2.77;;;2.37;;
19151;SDS011;9708;53.114;9.388;2024-03-06T03:48:41;1.90;;;1.80;;
19151;SDS011;9708;53.114;9.388;2024-03-06T03:51:08;1.30;;;1.30;;
19151;SDS011;9708;53.114;9.388;2024-03-06T03:53:35;1.67;;;1.57;;
19151;SDS011;9708;53.114;9.388;2024-03-06T03:56:02;2.73;;;2.17;;
19151;SDS011;9708;53.114;9.388;2024-03-06T03:58:29;1.40;;;1.40;;
19151;SDS011;9708;53.114;9.388;2024-03-06T04:00:56;1.47;;;1.40;;
19151;SDS011;9708;53.114;9.388;2024-03-06T04:03:23;3.20;;;1.93;;
19151;SDS011;9708;53.114;9.388;2024-03-06T04:05:51;2.07;;;1.80;;
19151;SDS011;9708;53.114;9.388;2024-03-06T04:08:18;1.50;;;1.43;;
19151;SDS011;9708;53.114;9.388;2024-03-06T04:10:45;3.80;;;2.77;;
19151;SDS011;9708;53.114;9.388;2024-03-06T04:13:12;2.07;;;1.97;;
19151;SDS011;9708;53.114;9.388;2024-03-06T04:15:39;1.20;;;1.20;;
19151;SDS011;9708;53.114;9.388;2024-03-06T04:18:06;3.23;;;1.53;;
19151;SDS011;9708;53.114;9.388;2024-03-06T04:20:32;1.30;;;1.30;;
19151;SDS011;9708;53.114;9.388;2024-03-06T04:23:01;6.73;;;2.77;;
19151;SDS011;9708;53.114;9.388;2024-03-06T04:25:28;2.07;;;1.97;;
19151;SDS011;9708;53.114;9.388;2024-03-06T04:27:55;4.40;;;2.70;;
19151;SDS011;9708;53.114;9.388;2024-03-06T04:30:22;1.80;;;1.70;;
19151;SDS011;9708;53.114;9.388;2024-03-06T04:32:49;1.97;;;1.87;;
19151;SDS011;9708;53.114;9.388;2024-03-06T04:35:16;2.67;;;2.07;;
19151;SDS011;9708;53.114;9.388;2024-03-06T04:37:43;1.60;;;1.50;;
19151;SDS011;9708;53.114;9.388;2024-03-06T04:40:11;1.23;;;1.23;;
19151;SDS011;9708;53.114;9.388;2024-03-06T04:42:42;1.60;;;1.50;;
19151;SDS011;9708;53.114;9.388;2024-03-06T04:45:13;2.57;;;2.37;;
19151;SDS011;9708;53.114;9.388;2024-03-06T04:47:41;1.67;;;1.57;;
19151;SDS011;9708;53.114;9.388;2024-03-06T04:50:08;2.93;;;1.80;;
19151;SDS011;9708;53.114;9.388;2024-03-06T04:52:36;1.90;;;1.90;;
19151;SDS011;9708;53.114;9.388;2024-03-06T04:55:03;1.87;;;1.80;;
19151;SDS011;9708;53.114;9.388;2024-03-06T04:57:32;2.73;;;2.63;;
19151;SDS011;9708;53.114;9.388;2024-03-06T05:00:00;2.10;;;2.00;;
19151;SDS011;9708;53.114;9.388;2024-03-06T05:02:30;6.20;;;1.40;;
19151;SDS011;9708;53.114;9.388;2024-03-06T05:04:59;1.73;;;1.63;;
19151;SDS011;9708;53.114;9.388;2024-03-06T05:07:27;1.73;;;1.63;;
19151;SDS011;9708;53.114;9.388;2024-03-06T05:09:54;1.97;;;1.87;;
19151;SDS011;9708;53.114;9.388;2024-03-06T05:12:22;2.07;;;1.87;;
19151;SDS011;9708;53.114;9.388;2024-03-06T05:14:50;1.40;;;1.30;;
19151;SDS011;9708;53.114;9.388;2024-03-06T05:17:17;3.10;;;2.83;;
19151;SDS011;9708;53.114;9.388;2024-03-06T05:19:45;1.47;;;1.47;;
19151;SDS011;9708;53.114;9.388;2024-03-06T05:22:12;1.50;;;1.40;;
19151;SDS011;9708;53.114;9.388;2024-03-06T05:24:39;1.33;;;1.33;;
19151;SDS011;9708;53.114;9.388;2024-03-06T05:27:06;2.93;;;2.63;;
19151;SDS011;9708;53.114;9.388;2024-03-06T05:29:34;1.20;;;1.20;;
19151;SDS011;9708;53.114;9.388;2024-03-06T05:32:03;6.23;;;2.40;;
19151;SDS011;9708;53.114;9.388;2024-03-06T05:34:30;1.83;;;1.67;;
19151;SDS011;9708;53.114;9.388;2024-03-06T05:36:56;2.93;;;2.00;;
19151;SDS011;9708;53.114;9.388;2024-03-06T05:39:23;1.83;;;1.77;;
19151;SDS011;9708;53.114;9.388;2024-03-06T05:41:50;1.93;;;1.80;;
19151;SDS011;9708;53.114;9.388;2024-03-06T05:44:17;5.47;;;2.13;;
19151;SDS011;9708;53.114;9.388;2024-03-06T05:46:44;2.33;;;2.20;;
19151;SDS011;9708;53.114;9.388;2024-03-06T05:49:13;1.37;;;1.37;;
19151;SDS011;9708;53.114;9.388;2024-03-06T05:51:40;1.83;;;1.83;;
19151;SDS011;9708;53.114;9.388;2024-03-06T05:54:07;0.87;;;0.87;;
19151;SDS011;9708;53.114;9.388;2024-03-06T05:56:34;1.10;;;1.10;;
19151;SDS011;9708;53.114;9.388;2024-03-06T05:59:01;1.00;;;1.00;;
19151;SDS011;9708;53.114;9.388;2024-03-06T06:01:29;3.20;;;1.83;;
19151;SDS011;9708;53.114;9.388;2024-03-06T06:03:56;1.63;;;1.60;;
19151;SDS011;9708;53.114;9.388;2024-03-06T06:06:27;2.80;;;2.60;;
19151;SDS011;9708;53.114;9.388;2024-03-06T06:08:53;1.33;;;1.33;;
19151;SDS011;9708;53.114;9.388;2024-03-06T06:11:20;3.27;;;1.57;;
19151;SDS011;9708;53.114;9.388;2024-03-06T06:13:47;3.00;;;2.80;;
19151;SDS011;9708;53.114;9.388;2024-03-06T06:16:14;20.27;;;1.77;;
19151;SDS011;9708;53.114;9.388;2024-03-06T06:18:41;2.47;;;2.27;;
19151;SDS011;9708;53.114;9.388;2024-03-06T06:21:08;1.17;;;1.17;;
19151;SDS011;9708;53.114;9.388;2024-03-06T06:23:36;2.93;;;1.57;;
19151;SDS011;9708;53.114;9.388;2024-03-06T06:26:03;2.00;;;1.90;;
19151;SDS011;9708;53.114;9.388;2024-03-06T06:28:30;1.93;;;1.83;;
19151;SDS011;9708;53.114;9.388;2024-03-06T06:30:57;2.20;;;1.20;;
19151;SDS011;9708;53.114;9.388;2024-03-06T06:33:23;1.30;;;1.30;;
19151;SDS011;9708;53.114;9.388;2024-03-06T06:35:50;2.07;;;1.97;;
19151;SDS011;9708;53.114;9.388;2024-03-06T06:38:19;2.37;;;1.77;;
19151;SDS011;9708;53.114;9.388;2024-03-06T06:40:47;2.10;;;1.90;;
19151;SDS011;9708;53.114;9.388;2024-03-06T06:43:14;1.73;;;1.60;;
19151;SDS011;9708;53.114;9.388;2024-03-06T06:45:41;1.47;;;1.47;;
19151;SDS011;9708;53.114;9.388;2024-03-06T06:48:08;5.23;;;1.93;;
19151;SDS011;9708;53.114;9.388;2024-03-06T06:50:35;4.10;;;1.87;;
19151;SDS011;9708;53.114;9.388;2024-03-06T06:53:01;3.07;;;1.77;;
19151;SDS011;9708;53.114;9.388;2024-03-06T06:55:28;3.60;;;2.17;;
19151;SDS011;9708;53.114;9.388;2024-03-06T06:57:57;2.27;;;2.13;;
19151;SDS011;9708;53.114;9.388;2024-03-06T07:00:24;2.17;;;2.03;;
19151;SDS011;9708;53.114;9.388;2024-03-06T07:02:50;3.90;;;1.80;;
19151;SDS011;9708;53.114;9.388;2024-03-06T07:05:18;2.00;;;1.90;;
19151;SDS011;9708;53.114;9.388;2024-03-06T07:07:45;2.87;;;1.47;;
19151;SDS011;9708;53.114;9.388;2024-03-06T07:10:12;1.77;;;1.67;;
19151;SDS011;9708;53.114;9.388;2024-03-06T07:12:39;2.93;;;2.37;;
19151;SDS011;9708;53.114;9.388;2024-03-06T07:15:07;2.23;;;2.13;;
19151;SDS011;9708;53.114;9.388;2024-03-06T07:17:34;5.70;;;1.93;;
19151;SDS011;9708;53.114;9.388;2024-03-06T07:20:01;5.23;;;3.23;;
19151;SDS011;9708;53.114;9.388;2024-03-06T07:22:30;4.47;;;2.73;;
19151;SDS011;9708;53.114;9.388;2024-03-06T07:24:56;2.60;;;2.40;;
19151;SDS011;9708;53.114;9.388;2024-03-06T07:27:23;4.67;;;3.57;;
19151;SDS011;9708;53.114;9.388;2024-03-06T07:29:51;3.50;;;3.20;;
19151;SDS011;9708;53.114;9.388;2024-03-06T07:32:20;2.87;;;2.07;;
19151;SDS011;9708;53.114;9.388;2024-03-06T07:34:47;3.83;;;2.77;;
19151;SDS011;9708;53.114;9.388;2024-03-06T07:37:13;5.90;;;2.70;;
19151;SDS011;9708;53.114;9.388;2024-03-06T07:39:40;4.80;;;2.80;;
19151;SDS011;9708;53.114;9.388;2024-03-06T07:42:07;2.60;;;2.17;;
19151;SDS011;9708;53.114;9.388;2024-03-06T07:44:35;4.03;;;3.63;;
19151;SDS011;9708;53.114;9.388;2024-03-06T07:47:02;3.40;;;2.63;;
19151;SDS011;9708;53.114;9.388;2024-03-06T07:49:31;3.67;;;2.20;;
19151;SDS011;9708;53.114;9.388;2024-03-06T07:51:58;2.37;;;2.03;;
19151;SDS011;9708;53.114;9.388;2024-03-06T07:54:25;3.93;;;2.47;;
19151;SDS011;9708;53.114;9.388;2024-03-06T07:56:51;3.33;;;2.17;;
19151;SDS011;9708;53.114;9.388;2024-03-06T07:59:18;5.27;;;2.40;;
19151;SDS011;9708;53.114;9.388;2024-03-06T08:01:45;5.23;;;2.70;;
19151;SDS011;9708;53.114;9.388;2024-03-06T08:04:13;4.00;;;2.47;;
19151;SDS011;9708;53.114;9.388;2024-03-06T08:06:41;10.67;;;3.40;;
19151;SDS011;9708;53.114;9.388;2024-03-06T08:09:08;5.70;;;3.03;;
19151;SDS011;9708;53.114;9.388;2024-03-06T08:11:35;2.53;;;2.33;;
19151;SDS011;9708;53.114;9.388;2024-03-06T08:14:01;4.77;;;3.23;;
19151;SDS011;9708;53.114;9.388;2024-03-06T08:16:28;5.80;;;2.93;;
19151;SDS011;9708;53.114;9.388;2024-03-06T08:18:55;5.17;;;2.97;;
19151;SDS011;9708;53.114;9.388;2024-03-06T08:21:24;4.63;;;2.27;;
19151;SDS011;9708;53.114;9.388;2024-03-06T08:23:52;4.07;;;3.13;;
19151;SDS011;9708;53.114;9.388;2024-03-06T08:26:19;4.20;;;2.67;;
19151;SDS011;9708;53.114;9.388;2024-03-06T08:28:46;5.00;;;2.90;;
19151;SDS011;9708;53.114;9.388;2024-03-06T08:31:14;4.47;;;3.57;;
19151;SDS011;9708;53.114;9.388;2024-03-06T08:33:40;4.33;;;3.13;;
19151;SDS011;9708;53.114;9.388;2024-03-06T08:36:09;3.37;;;2.40;;
19151;SDS011;9708;53.114;9.388;2024-03-06T08:38:36;6.53;;;2.67;;
19151;SDS011;9708;53.114;9.388;2024-03-06T08:41:04;6.27;;;2.83;;
19151;SDS011;9708;53.114;9.388;2024-03-06T08:43:31;4.30;;;3.57;;
19151;SDS011;9708;53.114;9.388;2024-03-06T08:45:58;7.50;;;3.83;;
19151;SDS011;9708;53.114;9.388;2024-03-06T08:48:25;8.03;;;3.03;;
19151;SDS011;9708;53.114;9.388;2024-03-06T08:50:51;12.30;;;3.27;;
19151;SDS011;9708;53.114;9.388;2024-03-06T08:53:19;5.77;;;3.57;;
19151;SDS011;9708;53.114;9.388;2024-03-06T08:55:47;8.80;;;4.47;;
19151;SDS011;9708;53.114;9.388;2024-03-06T08:58:15;8.57;;;3.83;;
19151;SDS011;9708;53.114;9.388;2024-03-06T09:00:42;4.30;;;2.93;;
19151;SDS011;9708;53.114;9.388;2024-03-06T09:03:09;5.33;;;3.20;;
19151;SDS011;9708;53.114;9.388;2024-03-06T09:05:36;7.37;;;4.07;;
19151;SDS011;9708;53.114;9.388;2024-03-06T09:08:03;11.77;;;4.03;;
19151;SDS011;9708;53.114;9.388;2024-03-06T09:10:30;5.37;;;3.13;;
19151;SDS011;9708;53.114;9.388;2024-03-06T09:12:57;7.00;;;4.37;;
19151;SDS011;9708;53.114;9.388;2024-03-06T09:15:25;7.10;;;3.23;;
19151;SDS011;9708;53.114;9.388;2024-03-06T09:17:52;4.90;;;3.30;;
19151;SDS011;9708;53.114;9.388;2024-03-06T09:20:19;6.00;;;2.97;;
19151;SDS011;9708;53.114;9.388;2024-03-06T09:22:49;5.57;;;3.07;;
19151;SDS011;9708;53.114;9.388;2024-03-06T09:25:19;6.67;;;3.03;;
19151;SDS011;9708;53.114;9.388;2024-03-06T09:27:46;5.40;;;3.20;;
19151;SDS011;9708;53.114;9.388;2024-03-06T09:30:13;6.13;;;3.10;;
19151;SDS011;9708;53.114;9.388;2024-03-06T09:32:42;10.30;;;4.13;;
19151;SDS011;9708;53.114;9.388;2024-03-06T09:35:09;4.17;;;2.70;;
19151;SDS011;9708;53.114;9.388;2024-03-06T09:37:36;4.10;;;2.83;;
19151;SDS011;9708;53.114;9.388;2024-03-06T09:40:03;4.87;;;3.27;;
19151;SDS011;9708;53.114;9.388;2024-03-06T09:42:32;4.77;;;2.93;;
19151;SDS011;9708;53.114;9.388;2024-03-06T09:44:59;6.97;;;3.17;;
19151;SDS011;9708;53.114;9.388;2024-03-06T09:47:27;6.70;;;3.93;;
19151;SDS011;9708;53.114;9.388;2024-03-06T09:49:59;7.13;;;3.50;;
19151;SDS011;9708;53.114;9.388;2024-03-06T09:52:31;6.30;;;3.00;;
19151;SDS011;9708;53.114;9.388;2024-03-06T09:54:59;4.73;;;3.33;;
19151;SDS011;9708;53.114;9.388;2024-03-06T09:57:27;5.65;;;2.60;;
19151;SDS011;9708;53.114;9.388;2024-03-06T09:59:54;2.90;;;2.25;;
19151;SDS011;9708;53.114;9.388;2024-03-06T10:02:25;5.20;;;3.33;;
19151;SDS011;9708;53.114;9.388;2024-03-06T10:04:57;7.50;;;3.33;;
19151;SDS011;9708;53.114;9.388;2024-03-06T10:07:25;5.97;;;2.97;;
19151;SDS011;9708;53.114;9.388;2024-03-06T10:09:52;4.70;;;2.90;;
19151;SDS011;9708;53.114;9.388;2024-03-06T10:12:19;4.28;;;3.05;;
19151;SDS011;9708;53.114;9.388;2024-03-06T10:14:50;3.97;;;2.33;;
19151;SDS011;9708;53.114;9.388;2024-03-06T10:17:20;5.30;;;2.70;;
19151;SDS011;9708;53.114;9.388;2024-03-06T10:19:48;5.53;;;3.13;;
19151;SDS011;9708;53.114;9.388;2024-03-06T10:22:16;6.83;;;3.20;;
19151;SDS011;9708;53.114;9.388;2024-03-06T10:24:50;5.77;;;2.70;;
19151;SDS011;9708;53.114;9.388;2024-03-06T10:27:22;7.23;;;2.60;;
19151;SDS011;9708;53.114;9.388;2024-03-06T10:30:00;5.90;;;2.90;;
19151;SDS011;9708;53.114;9.388;2024-03-06T10:32:27;4.90;;;3.10;;
19151;SDS011;9708;53.114;9.388;2024-03-06T10:34:56;7.07;;;3.77;;
19151;SDS011;9708;53.114;9.388;2024-03-06T10:37:23;3.73;;;3.20;;
19151;SDS011;9708;53.114;9.388;2024-03-06T10:39:52;7.85;;;3.22;;
19151;SDS011;9708;53.114;9.388;2024-03-06T10:42:22;4.63;;;2.97;;
19151;SDS011;9708;53.114;9.388;2024-03-06T10:44:52;3.88;;;2.47;;
19151;SDS011;9708;53.114;9.388;2024-03-06T10:47:21;3.63;;;3.28;;
19151;SDS011;9708;53.114;9.388;2024-03-06T10:49:51;6.30;;;3.65;;
19151;SDS011;9708;53.114;9.388;2024-03-06T10:52:19;6.90;;;3.53;;
19151;SDS011;9708;53.114;9.388;2024-03-06T10:54:47;3.78;;;2.80;;
19151;SDS011;9708;53.114;9.388;2024-03-06T10:57:16;3.78;;;2.88;;
19151;SDS011;9708;53.114;9.388;2024-03-06T10:59:45;3.45;;;2.22;;
19151;SDS011;9708;53.114;9.388;2024-03-06T11:02:12;6.35;;;3.72;;
19151;SDS011;9708;53.114;9.388;2024-03-06T11:04:39;7.00;;;3.50;;
19151;SDS011;9708;53.114;9.388;2024-03-06T11:07:07;4.15;;;2.78;;
19151;SDS011;9708;53.114;9.388;2024-03-06T11:09:35;4.88;;;2.88;;
19151;SDS011;9708;53.114;9.388;2024-03-06T11:12:03;6.38;;;2.95;;
19151;SDS011;9708;53.114;9.388;2024-03-06T11:14:36;6.00;;;3.83;;
19151;SDS011;9708;53.114;9.388;2024-03-06T11:17:03;4.32;;;3.40;;
19151;SDS011;9708;53.114;9.388;2024-03-06T11:20:07;4.53;;;3.20;;
19151;SDS011;9708;53.114;9.388;2024-03-06T11:28:24;5.95;;;2.88;;
19151;SDS011;9708;53.114;9.388;2024-03-06T11:30:56;6.43;;;3.20;;
19151;SDS011;9708;53.114;9.388;2024-03-06T11:33:27;5.93;;;3.45;;
19151;SDS011;9708;53.114;9.388;2024-03-06T11:36:14;6.15;;;3.17;;
19151;SDS011;9708;53.114;9.388;2024-03-06T11:38:46;7.28;;;3.00;;
19151;SDS011;9708;53.114;9.388;2024-03-06T11:41:23;6.25;;;3.30;;
19151;SDS011;9708;53.114;9.388;2024-03-06T11:43:51;8.38;;;3.10;;
19151;SDS011;9708;53.114;9.388;2024-03-06T11:46:20;5.25;;;2.88;;
19151;SDS011;9708;53.114;9.388;2024-03-06T11:48:54;6.03;;;3.70;;
19151;SDS011;9708;53.114;9.388;2024-03-06T11:51:23;5.60;;;3.47;;
19151;SDS011;9708;53.114;9.388;2024-03-06T11:53:51;7.32;;;4.03;;
19151;SDS011;9708;53.114;9.388;2024-03-06T11:56:19;5.93;;;3.47;;
19151;SDS011;9708;53.114;9.388;2024-03-06T11:58:46;4.40;;;3.38;;
19151;SDS011;9708;53.114;9.388;2024-03-06T12:01:13;5.82;;;3.70;;
19151;SDS011;9708;53.114;9.388;2024-03-06T12:03:42;7.22;;;4.68;;
19151;SDS011;9708;53.114;9.388;2024-03-06T12:06:10;6.00;;;3.20;;
19151;SDS011;9708;53.114;9.388;2024-03-06T12:08:38;6.35;;;3.33;;
19151;SDS011;9708;53.114;9.388;2024-03-06T12:11:05;8.27;;;4.43;;
19151;SDS011;9708;53.114;9.388;2024-03-06T12:13:32;6.00;;;3.50;;
19151;SDS011;9708;53.114;9.388;2024-03-06T12:16:03;6.57;;;3.80;;
19151;SDS011;9708;53.114;9.388;2024-03-06T12:18:31;5.28;;;3.67;;
19151;SDS011;9708;53.114;9.388;2024-03-06T12:21:01;4.32;;;2.92;;
19151;SDS011;9708;53.114;9.388;2024-03-06T12:23:28;7.05;;;3.28;;
19151;SDS011;9708;53.114;9.388;2024-03-06T12:26:02;8.07;;;4.03;;
19151;SDS011;9708;53.114;9.388;2024-03-06T12:28:30;4.93;;;3.15;;
19151;SDS011;9708;53.114;9.388;2024-03-06T12:30:57;7.32;;;3.65;;
19151;SDS011;9708;53.114;9.388;2024-03-06T12:33:26;6.20;;;4.30;;
19151;SDS011;9708;53.114;9.388;2024-03-06T12:36:01;9.35;;;4.45;;
19151;SDS011;9708;53.114;9.388;2024-03-06T12:38:29;7.55;;;4.07;;
19151;SDS011;9708;53.114;9.388;2024-03-06T12:40:56;6.55;;;3.97;;
19151;SDS011;9708;53.114;9.388;2024-03-06T12:43:23;6.30;;;3.58;;
19151;SDS011;9708;53.114;9.388;2024-03-06T12:45:50;7.53;;;3.25;;
19151;SDS011;9708;53.114;9.388;2024-03-06T12:48:19;8.18;;;3.88;;
19151;SDS011;9708;53.114;9.388;2024-03-06T12:50:46;8.70;;;3.83;;
19151;SDS011;9708;53.114;9.388;2024-03-06T12:53:17;6.38;;;3.10;;
19151;SDS011;9708;53.114;9.388;2024-03-06T12:55:44;5.90;;;3.53;;
19151;SDS011;9708;53.114;9.388;2024-03-06T12:58:11;5.28;;;3.22;;
19151;SDS011;9708;53.114;9.388;2024-03-06T13:00:38;6.10;;;3.85;;
19151;SDS011;9708;53.114;9.388;2024-03-06T13:03:06;4.85;;;3.50;;
19151;SDS011;9708;53.114;9.388;2024-03-06T13:05:33;6.47;;;2.60;;
19151;SDS011;9708;53.114;9.388;2024-03-06T13:08:00;5.75;;;3.72;;
19151;SDS011;9708;53.114;9.388;2024-03-06T13:10:28;5.70;;;3.15;;
19151;SDS011;9708;53.114;9.388;2024-03-06T13:12:55;7.72;;;4.35;;
19151;SDS011;9708;53.114;9.388;2024-03-06T13:15:21;8.90;;;3.67;;
19151;SDS011;9708;53.114;9.388;2024-03-06T13:17:48;7.22;;;3.80;;
19151;SDS011;9708;53.114;9.388;2024-03-06T13:20:15;5.57;;;3.55;;
19151;SDS011;9708;53.114;9.388;2024-03-06T13:22:42;6.57;;;3.65;;
19151;SDS011;9708;53.114;9.388;2024-03-06T13:25:10;6.45;;;3.72;;
19151;SDS011;9708;53.114;9.388;2024-03-06T13:27:38;10.02;;;5.03;;
19151;SDS011;9708;53.114;9.388;2024-03-06T13:30:06;6.22;;;3.53;;
19151;SDS011;9708;53.114;9.388;2024-03-06T13:32:34;6.72;;;3.70;;
19151;SDS011;9708;53.114;9.388;2024-03-06T13:35:00;7.18;;;3.25;;
19151;SDS011;9708;53.114;9.388;2024-03-06T13:37:27;7.38;;;3.75;;
19151;SDS011;9708;53.114;9.388;2024-03-06T13:39:54;9.63;;;4.03;;
19151;SDS011;9708;53.114;9.388;2024-03-06T13:42:25;7.88;;;3.85;;
19151;SDS011;9708;53.114;9.388;2024-03-06T13:44:53;5.78;;;3.08;;
19151;SDS011;9708;53.114;9.388;2024-03-06T13:47:20;4.38;;;2.97;;
19151;SDS011;9708;53.114;9.388;2024-03-06T13:49:48;13.70;;;4.10;;
19151;SDS011;9708;53.114;9.388;2024-03-06T13:52:15;3.43;;;2.57;;
19151;SDS011;9708;53.114;9.388;2024-03-06T13:54:45;6.70;;;3.20;;
19151;SDS011;9708;53.114;9.388;2024-03-06T13:57:12;5.50;;;2.73;;
19151;SDS011;9708;53.114;9.388;2024-03-06T13:59:39;5.33;;;4.13;;
19151;SDS011;9708;53.114;9.388;2024-03-06T14:02:08;5.67;;;3.17;;
19151;SDS011;9708;53.114;9.388;2024-03-06T14:04:35;6.43;;;3.67;;
19151;SDS011;9708;53.114;9.388;2024-03-06T14:07:03;7.50;;;3.03;;
19151;SDS011;9708;53.114;9.388;2024-03-06T14:09:30;4.93;;;3.53;;
19151;SDS011;9708;53.114;9.388;2024-03-06T14:11:57;6.10;;;4.10;;
19151;SDS011;9708;53.114;9.388;2024-03-06T14:14:24;4.93;;;3.20;;
19151;SDS011;9708;53.114;9.388;2024-03-06T14:16:51;5.13;;;3.43;;
19151;SDS011;9708;53.114;9.388;2024-03-06T14:19:19;4.53;;;3.07;;
19151;SDS011;9708;53.114;9.388;2024-03-06T14:21:46;4.87;;;2.97;;
19151;SDS011;9708;53.114;9.388;2024-03-06T14:24:13;4.80;;;3.23;;
19151;SDS011;9708;53.114;9.388;2024-03-06T14:26:40;5.70;;;3.57;;
19151;SDS011;9708;53.114;9.388;2024-03-06T14:29:07;6.07;;;3.42;;
19151;SDS011;9708;53.114;9.388;2024-03-06T14:31:34;7.70;;;4.28;;
19151;SDS011;9708;53.114;9.388;2024-03-06T14:34:01;6.25;;;4.00;;
19151;SDS011;9708;53.114;9.388;2024-03-06T14:36:29;8.00;;;3.53;;
19151;SDS011;9708;53.114;9.388;2024-03-06T14:38:57;13.27;;;3.83;;
19151;SDS011;9708;53.114;9.388;2024-03-06T14:41:24;4.13;;;3.28;;
19151;SDS011;9708;53.114;9.388;2024-03-06T14:43:50;6.10;;;3.30;;
19151;SDS011;9708;53.114;9.388;2024-03-06T14:46:18;4.95;;;3.05;;
19151;SDS011;9708;53.114;9.388;2024-03-06T14:48:45;5.30;;;3.00;;
19151;SDS011;9708;53.114;9.388;2024-03-06T14:51:12;5.30;;;4.00;;
19151;SDS011;9708;53.114;9.388;2024-03-06T14:53:40;4.67;;;2.70;;
19151;SDS011;9708;53.114;9.388;2024-03-06T14:56:07;4.77;;;4.03;;
19151;SDS011;9708;53.114;9.388;2024-03-06T14:58:35;6.73;;;4.03;;
19151;SDS011;9708;53.114;9.388;2024-03-06T15:01:02;9.23;;;3.43;;
19151;SDS011;9708;53.114;9.388;2024-03-06T15:03:30;8.33;;;3.57;;
19151;SDS011;9708;53.114;9.388;2024-03-06T15:05:57;5.47;;;2.80;;
19151;SDS011;9708;53.114;9.388;2024-03-06T15:08:23;5.60;;;3.93;;